createdAt,value
2018-06-04T00:02:17.702Z,25.70
2018-06-04T00:04:45.484Z,25.37
2018-06-04T00:07:13.289Z,25.93
2018-06-04T00:09:41.143Z,24.27
2018-06-04T00:12:10.012Z,23.70
2018-06-04T00:14:37.838Z,22.93
2018-06-04T00:17:06.388Z,24.80
2018-06-04T00:19:34.238Z,26.47
2018-06-04T00:22:02.083Z,23.70
2018-06-04T00:24:29.928Z,26.23
2018-06-04T00:26:58.203Z,38.00
2018-06-04T00:29:26.061Z,32.03
2018-06-04T00:31:54.501Z,27.40
2018-06-04T00:34:22.307Z,29.87
2018-06-04T00:36:52.222Z,27.10
2018-06-04T00:39:19.943Z,27.90
2018-06-04T00:41:47.587Z,30.10
2018-06-04T00:44:15.429Z,30.47
2018-06-04T00:46:44.281Z,27.13
2018-06-04T00:49:12.055Z,29.87
2018-06-04T00:51:39.921Z,27.47
2018-06-04T00:54:07.584Z,30.30
2018-06-04T00:56:35.421Z,28.53
2018-06-04T00:59:03.265Z,30.17
2018-06-04T01:01:31.069Z,30.60
2018-06-04T01:03:58.883Z,33.53
2018-06-04T01:06:26.671Z,29.77
2018-06-04T01:08:54.459Z,25.67
2018-06-04T01:11:22.267Z,30.97
2018-06-04T01:13:50.076Z,31.90
2018-06-04T01:16:17.922Z,36.90
2018-06-04T01:18:45.699Z,36.30
2018-06-04T01:21:13.503Z,35.23
2018-06-04T01:23:41.332Z,33.43
2018-06-04T01:26:09.180Z,32.80
2018-06-04T01:28:37.012Z,34.57
2018-06-04T01:31:04.890Z,37.17
2018-06-04T01:33:32.740Z,34.67
2018-06-04T01:36:00.548Z,38.37
2018-06-04T01:38:28.313Z,36.07
2018-06-04T01:40:56.185Z,36.60
2018-06-04T01:43:23.967Z,35.17
2018-06-04T01:45:51.734Z,40.30
2018-06-04T01:48:19.532Z,35.80
2018-06-04T01:50:47.365Z,38.13
2018-06-04T01:53:15.130Z,38.50
2018-06-04T01:55:42.957Z,38.57
2018-06-04T01:58:12.815Z,38.10
2018-06-04T02:00:40.644Z,39.23
2018-06-04T02:03:08.412Z,38.73
2018-06-04T02:05:36.219Z,43.50
2018-06-04T02:08:04.177Z,40.27
2018-06-04T02:10:31.954Z,39.93
2018-06-04T02:12:59.781Z,46.33
2018-06-04T02:15:27.596Z,38.67
2018-06-04T02:17:55.216Z,43.57
2018-06-04T02:20:23.018Z,48.53
2018-06-04T02:22:50.857Z,46.80
2018-06-04T02:25:18.671Z,44.73
2018-06-04T02:27:47.644Z,48.00
2018-06-04T02:30:15.431Z,47.77
2018-06-04T02:32:43.258Z,49.30
2018-06-04T02:35:11.012Z,48.43
2018-06-04T02:37:38.873Z,51.53
2018-06-04T02:40:06.702Z,52.23
2018-06-04T02:42:34.511Z,45.80
2018-06-04T02:45:02.363Z,49.37
2018-06-04T02:47:30.277Z,50.73
2018-06-04T02:49:58.212Z,51.43
2018-06-04T02:52:26.084Z,52.00
2018-06-04T02:54:54.021Z,49.07
2018-06-04T02:57:21.885Z,53.60
2018-06-04T02:59:49.707Z,50.03
2018-06-04T03:02:17.577Z,49.70
2018-06-04T03:04:45.424Z,56.57
2018-06-04T03:07:13.259Z,59.47
2018-06-04T03:09:41.096Z,50.43
2018-06-04T03:12:08.890Z,52.53
2018-06-04T03:14:36.711Z,48.60
2018-06-04T03:17:04.786Z,52.50
2018-06-04T03:19:32.634Z,52.60
2018-06-04T03:22:00.616Z,51.80
2018-06-04T03:24:28.544Z,52.60
2018-06-04T03:26:56.391Z,50.63
2018-06-04T03:29:24.202Z,53.27
2018-06-04T03:31:52.046Z,53.07
2018-06-04T03:34:19.840Z,51.80
2018-06-04T03:36:47.651Z,53.50
2018-06-04T03:39:15.501Z,53.33
2018-06-04T03:41:43.260Z,53.03
2018-06-04T03:44:11.200Z,60.33
2018-06-04T03:46:40.028Z,59.50
2018-06-04T03:49:07.820Z,56.03
2018-06-04T03:51:35.722Z,67.10
2018-06-04T03:54:03.601Z,57.80
2018-06-04T03:56:31.381Z,68.70
2018-06-04T03:58:59.191Z,64.67
2018-06-04T04:11:07.051Z,70.93
2018-06-04T04:13:34.937Z,81.90
2018-06-04T04:16:02.785Z,79.50
2018-06-04T04:18:30.618Z,82.47
2018-06-04T04:20:59.923Z,80.53
2018-06-04T04:23:27.762Z,83.77
2018-06-04T04:25:55.657Z,87.33
2018-06-04T04:28:23.631Z,81.00
2018-06-04T04:30:51.764Z,82.63
2018-06-04T04:33:19.569Z,83.57
2018-06-04T04:35:47.388Z,91.30
2018-06-04T04:38:15.383Z,88.67
2018-06-04T04:40:43.233Z,88.17
2018-06-04T04:43:11.042Z,80.47
2018-06-04T04:45:38.872Z,78.70
2018-06-04T04:48:06.573Z,81.80
2018-06-04T04:50:34.308Z,87.97
2018-06-04T04:53:02.031Z,75.17
2018-06-04T04:55:29.677Z,78.63
2018-06-04T04:57:57.317Z,78.90
2018-06-04T05:00:24.852Z,76.33
2018-06-04T05:02:52.536Z,76.23
2018-06-04T05:05:20.159Z,75.70
2018-06-04T05:07:49.869Z,76.63
2018-06-04T05:10:17.517Z,75.90
2018-06-04T05:12:45.158Z,71.73
2018-06-04T05:15:12.803Z,74.63
2018-06-04T05:17:40.465Z,71.00
2018-06-04T05:20:08.121Z,73.57
2018-06-04T05:22:35.793Z,75.20
2018-06-04T05:25:03.511Z,68.97
2018-06-04T05:27:31.172Z,73.40
2018-06-04T05:29:59.689Z,74.97
2018-06-04T05:42:12.365Z,79.43
2018-06-04T05:44:40.026Z,75.63
2018-06-04T05:47:07.689Z,69.07
2018-06-04T05:49:35.347Z,73.17
2018-06-04T05:52:03.055Z,71.97
2018-06-04T05:54:30.779Z,66.80
2018-06-04T05:56:58.427Z,62.53
2018-06-04T05:59:26.093Z,70.13
2018-06-04T06:01:53.766Z,69.03
2018-06-04T06:04:21.435Z,67.43
2018-06-04T06:06:49.179Z,66.50
2018-06-04T06:09:16.904Z,71.60
2018-06-04T06:11:44.571Z,62.07
2018-06-04T06:14:12.265Z,64.07
2018-06-04T06:16:39.919Z,66.20
2018-06-04T06:19:07.605Z,67.10
2018-06-04T06:21:35.262Z,63.87
2018-06-04T06:24:02.951Z,64.97
2018-06-04T06:26:30.589Z,67.83
2018-06-04T06:28:58.287Z,69.83
2018-06-04T06:31:25.965Z,65.10
2018-06-04T06:33:53.629Z,69.10
2018-06-04T06:36:21.272Z,65.77
2018-06-04T06:38:48.917Z,65.30
2018-06-04T06:41:16.591Z,67.27
2018-06-04T06:43:44.261Z,61.97
2018-06-04T06:46:11.912Z,63.97
2018-06-04T06:48:39.578Z,61.30
2018-06-04T06:51:07.237Z,58.17
2018-06-04T06:53:34.916Z,56.87
2018-06-04T06:56:02.581Z,56.57
2018-06-04T06:58:30.252Z,56.13
2018-06-04T07:00:57.939Z,67.93
2018-06-04T07:03:25.589Z,56.40
2018-06-04T07:05:53.248Z,56.80
2018-06-04T07:08:21.290Z,51.93
2018-06-04T07:10:49.019Z,52.53
2018-06-04T07:13:16.695Z,50.20
2018-06-04T07:15:44.433Z,51.67
2018-06-04T07:18:12.076Z,50.90
2018-06-04T07:20:39.778Z,53.27
2018-06-04T07:23:07.453Z,46.77
2018-06-04T07:25:35.089Z,47.20
2018-06-04T07:28:02.746Z,48.87
2018-06-04T07:30:30.418Z,47.13
2018-06-04T07:32:58.100Z,51.20
2018-06-04T07:35:25.793Z,55.03
2018-06-04T07:37:53.641Z,50.57
2018-06-04T07:40:21.250Z,45.67
2018-06-04T07:42:48.964Z,51.77
2018-06-04T07:45:16.647Z,39.87
2018-06-04T07:47:44.379Z,41.93
2018-06-04T07:50:15.921Z,43.80
2018-06-04T07:52:43.845Z,41.90
2018-06-04T07:55:11.523Z,43.97
2018-06-04T08:14:23.152Z,42.73
2018-06-04T08:16:50.835Z,44.57
2018-06-04T08:19:18.532Z,41.13
2018-06-04T08:21:46.209Z,40.27
2018-06-04T08:24:13.886Z,39.73
2018-06-04T08:26:41.679Z,37.50
2018-06-04T08:29:09.411Z,37.27
2018-06-04T08:31:37.197Z,38.57
2018-06-04T08:34:04.862Z,35.70
2018-06-04T08:36:32.589Z,38.03
2018-06-04T08:39:00.265Z,38.57
2018-06-04T08:41:27.931Z,37.00
2018-06-04T08:43:55.618Z,35.50
2018-06-04T08:46:23.417Z,38.67
2018-06-04T08:48:51.167Z,38.33
2018-06-04T08:51:18.889Z,36.60
2018-06-04T08:53:46.635Z,35.53
2018-06-04T08:56:14.394Z,35.50
2018-06-04T08:58:42.080Z,36.17
2018-06-04T09:01:09.772Z,36.80
2018-06-04T09:04:24.891Z,38.97
2018-06-04T09:06:52.608Z,35.00
2018-06-04T09:09:20.375Z,39.77
2018-06-04T09:11:48.139Z,40.27
2018-06-04T09:14:15.842Z,37.17
2018-06-04T09:16:43.571Z,39.90
2018-06-04T09:19:11.360Z,42.80
2018-06-04T09:21:39.714Z,42.20
2018-06-04T09:24:07.473Z,43.07
2018-06-04T09:26:35.194Z,41.60
2018-06-04T09:29:02.917Z,41.00
2018-06-04T09:31:30.662Z,42.07
2018-06-04T09:33:58.419Z,45.60
2018-06-04T09:36:26.158Z,39.20
2018-06-04T09:38:53.881Z,40.63
2018-06-04T09:41:21.620Z,41.00
2018-06-04T09:43:49.801Z,40.95
2018-06-04T09:46:20.611Z,43.80
2018-06-04T09:48:48.363Z,42.43
2018-06-04T09:51:16.065Z,43.92
2018-06-04T09:53:43.767Z,43.08
2018-06-04T09:56:11.388Z,40.43
2018-06-04T09:58:38.998Z,38.78
2018-06-04T10:01:06.837Z,37.42
2018-06-04T10:03:34.492Z,41.53
2018-06-04T10:06:02.153Z,43.87
2018-06-04T10:08:29.966Z,42.05
2018-06-04T10:11:00.752Z,47.05
2018-06-04T10:13:28.441Z,43.50
2018-06-04T10:15:56.129Z,42.53
2018-06-04T10:18:34.114Z,41.60
2018-06-04T10:21:08.940Z,40.03
2018-06-04T10:23:36.656Z,41.30
2018-06-04T10:26:04.343Z,36.33
2018-06-04T10:28:35.672Z,36.10
2018-06-04T10:31:03.354Z,35.43
2018-06-04T10:33:37.502Z,40.37
2018-06-04T10:36:09.358Z,39.37
2018-06-04T10:38:37.036Z,40.13
2018-06-04T10:41:09.084Z,36.53
2018-06-04T10:43:36.740Z,37.57
2018-06-04T10:46:04.462Z,39.53
2018-06-04T10:48:34.187Z,40.03
2018-06-04T10:51:01.814Z,38.73
2018-06-04T10:53:29.476Z,39.10
2018-06-04T10:58:32.292Z,36.97
2018-06-04T11:01:04.762Z,35.67
2018-06-04T11:03:38.479Z,39.30
2018-06-04T11:06:17.995Z,41.50
2018-06-04T11:08:51.160Z,40.77
2018-06-04T11:11:23.094Z,47.60
2018-06-04T11:14:00.048Z,39.60
2018-06-04T11:16:39.014Z,40.07
2018-06-04T11:19:11.156Z,38.27
2018-06-04T11:21:43.192Z,34.43
2018-06-04T11:24:11.187Z,33.83
2018-06-04T11:26:42.349Z,35.20
2018-06-04T11:29:16.004Z,39.20
2018-06-04T11:31:53.328Z,37.53
2018-06-04T11:34:21.258Z,35.93
2018-06-04T11:36:48.900Z,36.10
2018-06-04T11:39:16.584Z,33.17
2018-06-04T11:41:44.259Z,32.97
2018-06-04T11:44:11.920Z,29.27
2018-06-04T11:46:39.566Z,31.53
2018-06-04T11:49:07.222Z,27.33
2018-06-04T11:51:34.866Z,36.10
2018-06-04T11:54:02.506Z,32.97
2018-06-04T11:56:30.336Z,29.30
2018-06-04T11:58:57.869Z,27.50
2018-06-04T12:01:25.534Z,28.40
2018-06-04T12:03:53.307Z,26.13
2018-06-04T12:06:21.029Z,29.27
2018-06-04T12:08:48.821Z,28.83
2018-06-04T12:11:16.631Z,29.10
2018-06-04T12:13:44.586Z,27.60
2018-06-04T12:16:12.652Z,27.00
2018-06-04T12:18:40.507Z,26.57
2018-06-04T12:21:08.296Z,26.50
2018-06-04T12:23:36.099Z,24.43
2018-06-04T12:26:04.587Z,25.77
2018-06-04T12:28:33.411Z,26.17
2018-06-04T12:31:01.334Z,24.93
2018-06-04T12:33:29.195Z,25.03
2018-06-04T12:35:56.942Z,24.47
2018-06-04T12:38:24.672Z,24.13
2018-06-04T12:40:53.378Z,23.07
2018-06-04T12:43:23.179Z,21.30
2018-06-04T12:45:50.910Z,22.60
2018-06-04T12:48:18.671Z,23.03
2018-06-04T12:50:47.015Z,19.53
2018-06-04T12:53:14.713Z,20.43
2018-06-04T12:55:42.373Z,26.17
2018-06-04T12:58:10.036Z,25.90
2018-06-04T13:00:37.691Z,26.13
2018-06-04T13:03:05.364Z,25.50
2018-06-04T13:05:33.028Z,23.20
2018-06-04T13:08:00.723Z,22.03
2018-06-04T13:10:28.448Z,21.77
2018-06-04T13:12:56.109Z,22.40
2018-06-04T13:15:23.758Z,27.70
2018-06-04T13:17:51.394Z,24.33
2018-06-04T13:20:19.095Z,24.13
2018-06-04T13:22:46.760Z,24.37
2018-06-04T13:25:14.446Z,21.67
2018-06-04T13:27:42.192Z,22.97
2018-06-04T13:30:09.817Z,23.47
2018-06-04T13:32:37.470Z,22.70
2018-06-04T13:35:05.281Z,28.30
2018-06-04T13:37:32.930Z,29.07
2018-06-04T13:40:01.312Z,27.43
2018-06-04T13:42:28.913Z,27.63
2018-06-04T13:44:56.566Z,28.57
2018-06-04T13:47:24.214Z,29.80
2018-06-04T13:49:51.914Z,27.30
2018-06-04T13:52:19.613Z,26.97
2018-06-04T13:54:47.275Z,25.10
2018-06-04T13:57:14.952Z,26.50
2018-06-04T13:59:42.608Z,25.20
2018-06-04T14:02:10.274Z,25.93
2018-06-04T14:04:37.914Z,28.50
2018-06-04T14:07:05.584Z,28.87
2018-06-04T14:09:33.280Z,25.10
2018-06-04T14:12:00.936Z,28.97
2018-06-04T14:14:28.602Z,25.47
2018-06-04T14:16:56.327Z,36.23
2018-06-04T14:19:24.008Z,28.13
2018-06-04T14:21:51.669Z,25.50
2018-06-04T14:24:19.356Z,27.57
2018-06-04T14:26:47.047Z,29.07
2018-06-04T14:29:14.789Z,28.10
2018-06-04T14:31:42.467Z,24.93
2018-06-04T14:34:10.112Z,26.57
2018-06-04T14:36:37.841Z,28.33
2018-06-04T14:39:08.198Z,26.93
2018-06-04T14:41:36.314Z,25.63
2018-06-04T14:44:03.988Z,25.00
2018-06-04T14:46:31.727Z,26.87
2018-06-04T14:48:59.469Z,26.23
2018-06-04T14:51:27.159Z,29.13
2018-06-04T14:53:54.824Z,30.10
2018-06-04T14:56:22.510Z,30.00
2018-06-04T14:58:50.158Z,29.03
2018-06-04T15:01:17.839Z,27.50
2018-06-04T15:03:52.040Z,25.00
2018-06-04T15:06:19.764Z,27.47
2018-06-04T15:08:47.417Z,27.07
2018-06-04T15:11:15.112Z,26.20
2018-06-04T15:13:42.777Z,24.43
2018-06-04T15:16:10.471Z,26.50
2018-06-04T15:18:38.135Z,26.17
2018-06-04T15:21:05.831Z,29.63
2018-06-04T15:23:33.515Z,25.57
2018-06-04T15:26:01.159Z,24.27
2018-06-04T15:28:28.847Z,25.43
2018-06-04T15:30:56.519Z,23.87
2018-06-04T15:33:24.217Z,24.47
2018-06-04T15:35:51.911Z,26.03
2018-06-04T15:38:19.608Z,27.43
2018-06-04T15:40:47.300Z,26.07
2018-06-04T15:43:14.993Z,26.07
2018-06-04T15:45:42.699Z,25.60
2018-06-04T15:48:10.480Z,25.50
2018-06-04T15:50:38.156Z,25.53
2018-06-04T15:53:05.854Z,23.20
2018-06-04T15:55:33.519Z,22.33
2018-06-04T15:58:01.181Z,23.73
2018-06-04T16:00:28.843Z,24.67
2018-06-04T16:02:56.507Z,25.50
2018-06-04T16:05:24.165Z,23.50
2018-06-04T16:07:51.813Z,23.97
2018-06-04T16:10:19.464Z,25.77
2018-06-04T16:12:47.151Z,24.50
2018-06-04T16:15:14.827Z,23.87
2018-06-04T16:17:42.503Z,22.93
2018-06-04T16:20:10.189Z,23.13
2018-06-04T16:22:37.919Z,21.90
2018-06-04T16:25:05.561Z,22.50
2018-06-04T16:27:33.234Z,23.93
2018-06-04T16:30:00.908Z,24.93
2018-06-04T16:32:28.612Z,23.47
2018-06-04T16:34:56.305Z,23.30
2018-06-04T16:37:24.046Z,23.17
2018-06-04T16:39:51.651Z,21.67
2018-06-04T16:42:19.315Z,22.37
2018-06-04T16:44:46.985Z,21.37
2018-06-04T16:47:14.632Z,21.77
2018-06-04T16:49:42.303Z,22.00
2018-06-04T16:52:10.004Z,23.40
2018-06-04T16:54:37.661Z,23.73
2018-06-04T16:57:05.371Z,21.37
2018-06-04T16:59:33.136Z,21.17
2018-06-04T17:02:00.728Z,21.17
2018-06-04T17:04:28.409Z,19.67
2018-06-04T17:06:56.090Z,19.73
2018-06-04T17:09:23.763Z,18.73
2018-06-04T17:11:51.461Z,18.03
2018-06-04T17:14:19.204Z,18.90
2018-06-04T17:16:46.876Z,18.43
2018-06-04T17:19:14.606Z,19.13
2018-06-04T17:21:43.228Z,20.93
2018-06-04T17:24:10.912Z,18.00
2018-06-04T17:26:38.635Z,19.37
2018-06-04T17:29:06.336Z,19.47
2018-06-04T17:31:34.412Z,18.70
2018-06-04T17:34:02.330Z,18.47
2018-06-04T17:36:30.031Z,18.67
2018-06-04T17:38:58.860Z,18.10
2018-06-04T17:41:26.598Z,17.13
2018-06-04T17:53:39.404Z,16.03
2018-06-04T17:56:07.212Z,15.93
2018-06-04T17:58:35.000Z,17.00
2018-06-04T18:01:02.811Z,14.67
2018-06-04T18:03:30.566Z,14.50
2018-06-04T18:05:58.284Z,14.27
2018-06-04T18:08:27.255Z,14.63
2018-06-04T18:10:55.344Z,14.17
2018-06-04T18:13:23.016Z,14.27
2018-06-04T18:15:50.887Z,13.63
2018-06-04T18:18:18.638Z,13.70
2018-06-04T18:20:46.339Z,13.43
2018-06-04T18:23:14.065Z,13.63
2018-06-04T18:35:26.805Z,11.27
2018-06-04T18:37:54.481Z,13.23
2018-06-04T18:40:22.159Z,12.20
2018-06-04T18:42:49.887Z,12.00
2018-06-04T18:45:17.638Z,11.47
2018-06-04T18:47:45.402Z,12.63
2018-06-04T18:50:13.112Z,12.20
2018-06-04T18:52:40.839Z,13.47
2018-06-04T18:55:08.557Z,11.53
2018-06-04T18:57:36.412Z,12.20
2018-06-04T19:00:04.725Z,11.13
2018-06-04T19:02:32.498Z,12.70
2018-06-04T19:05:00.287Z,12.23
2018-06-04T19:07:27.957Z,13.87
2018-06-04T19:09:55.692Z,12.23
2018-06-04T19:12:23.391Z,11.97
2018-06-04T19:14:51.142Z,11.93
2018-06-04T19:17:19.060Z,11.53
2018-06-04T19:19:46.764Z,13.40
2018-06-04T19:22:14.476Z,11.70
2018-06-04T19:24:42.154Z,12.70
2018-06-04T19:27:10.048Z,12.00
2018-06-04T19:29:37.922Z,12.30
2018-06-04T19:32:06.246Z,11.17
2018-06-04T19:34:34.012Z,11.10
2018-06-04T19:37:01.929Z,12.13
2018-06-04T19:39:29.619Z,12.00
2018-06-04T19:41:57.375Z,14.60
2018-06-04T19:44:24.985Z,13.60
2018-06-04T19:46:52.693Z,12.30
2018-06-04T19:49:20.306Z,13.07
2018-06-04T19:51:48.528Z,12.97
2018-06-04T19:54:16.433Z,16.77
2018-06-04T19:56:44.153Z,14.03
2018-06-04T19:59:11.889Z,13.60
2018-06-04T20:01:39.727Z,15.70
2018-06-04T20:04:08.348Z,16.33
2018-06-04T20:06:36.197Z,18.73
2018-06-04T20:09:07.415Z,20.93
2018-06-04T20:11:35.370Z,22.60
2018-06-04T20:14:03.207Z,20.97
2018-06-04T20:16:30.928Z,22.77
2018-06-04T20:18:58.616Z,20.77
2018-06-04T20:21:26.420Z,23.33
2018-06-04T20:23:54.053Z,23.87
2018-06-04T20:26:21.767Z,25.43
2018-06-04T20:28:49.496Z,26.40
2018-06-04T20:31:17.270Z,23.73
2018-06-04T20:33:45.078Z,24.00
2018-06-04T20:36:14.982Z,22.57
2018-06-04T20:38:42.684Z,22.43
2018-06-04T20:41:10.575Z,25.30
2018-06-04T20:43:38.433Z,27.83
2018-06-04T20:46:06.400Z,27.07
2018-06-04T20:48:34.141Z,28.90
2018-06-04T20:51:01.964Z,24.87
2018-06-04T20:53:30.093Z,26.60
2018-06-04T20:55:58.152Z,24.20
2018-06-04T20:58:25.952Z,23.60
2018-06-04T21:00:53.802Z,22.00
2018-06-04T21:03:21.638Z,24.53
2018-06-04T21:05:49.378Z,24.27
2018-06-04T21:08:17.197Z,25.80
2018-06-04T21:10:45.024Z,26.80
2018-06-04T21:13:13.216Z,25.27
2018-06-04T21:15:41.316Z,26.90
2018-06-04T21:18:09.181Z,23.57
2018-06-04T21:20:37.142Z,20.33
2018-06-04T21:23:04.900Z,22.90
2018-06-04T21:25:32.693Z,21.77
2018-06-04T21:28:00.525Z,23.10
2018-06-04T21:30:28.302Z,23.70
2018-06-04T21:32:56.063Z,27.57
2018-06-04T21:35:23.940Z,22.83
2018-06-04T21:37:52.259Z,22.27
2018-06-04T21:40:20.321Z,21.50
2018-06-04T21:42:48.133Z,25.23
2018-06-04T21:45:15.985Z,23.73
2018-06-04T21:47:44.243Z,23.93
2018-06-04T21:50:12.021Z,21.93
2018-06-04T21:52:40.167Z,21.70
2018-06-04T21:55:07.940Z,24.47
2018-06-04T21:57:35.759Z,20.70
2018-06-04T22:00:05.219Z,19.37
2018-06-04T22:02:33.045Z,19.13
2018-06-04T22:05:00.808Z,17.07
2018-06-04T22:07:28.560Z,17.47
2018-06-04T22:09:56.341Z,16.17
2018-06-04T22:12:24.744Z,16.23
2018-06-04T22:14:52.911Z,16.67
2018-06-04T22:17:26.463Z,17.67
2018-06-04T22:19:54.477Z,16.33
2018-06-04T22:22:22.584Z,17.47
2018-06-04T22:24:50.406Z,16.70
2018-06-04T22:27:18.190Z,16.63
2018-06-04T22:29:46.207Z,16.67
2018-06-04T22:32:13.990Z,17.00
2018-06-04T22:34:41.786Z,16.47
2018-06-04T22:37:10.765Z,16.80
2018-06-04T22:39:38.565Z,17.33
2018-06-04T22:42:06.330Z,18.80
2018-06-04T22:44:34.177Z,16.43
2018-06-04T22:47:01.978Z,17.37
2018-06-04T22:49:29.806Z,17.70
2018-06-04T22:51:57.580Z,18.07
2018-06-04T23:04:10.474Z,19.30
2018-06-04T23:06:38.311Z,19.70
2018-06-04T23:09:07.208Z,19.77
2018-06-04T23:11:35.044Z,19.33
2018-06-04T23:14:03.370Z,19.60
2018-06-04T23:16:32.518Z,18.53
2018-06-04T23:19:00.294Z,18.30
2018-06-04T23:21:29.149Z,20.00
2018-06-04T23:23:56.896Z,19.13
2018-06-04T23:26:25.083Z,19.70
2018-06-04T23:28:52.918Z,19.73
2018-06-04T23:31:20.813Z,19.27
2018-06-04T23:33:48.576Z,20.80
2018-06-04T23:36:16.617Z,18.93
2018-06-04T23:38:44.426Z,19.90
2018-06-04T23:41:12.392Z,20.07
2018-06-04T23:43:41.018Z,21.20
2018-06-04T23:46:08.738Z,21.17
2018-06-04T23:48:36.589Z,22.10
2018-06-04T23:51:05.040Z,20.80
2018-06-04T23:53:34.633Z,21.73
2018-06-04T23:56:02.433Z,22.33
2018-06-04T23:58:30.726Z,21.80
